createdAt,value
2019-03-28T00:01:15.111Z,14.33
2019-03-28T00:03:44.926Z,18.27
2019-03-28T00:06:14.901Z,17.70
2019-03-28T00:08:45.204Z,20.10
2019-03-28T00:11:15.760Z,15.88
2019-03-28T00:13:45.666Z,15.88
2019-03-28T00:16:15.994Z,12.82
2019-03-28T00:18:46.152Z,14.23
2019-03-28T00:21:16.527Z,16.15
2019-03-28T00:23:54.326Z,14.10
2019-03-28T00:26:30.166Z,17.15
2019-03-28T00:28:56.052Z,16.75
2019-03-28T00:31:27.949Z,16.10
2019-03-28T00:33:59.143Z,18.65
2019-03-28T00:36:28.919Z,11.20
2019-03-28T00:38:59.109Z,15.03
2019-03-28T00:41:29.395Z,14.30
2019-03-28T00:43:59.709Z,13.60
2019-03-28T00:46:29.975Z,13.50
2019-03-28T00:49:00.261Z,17.70
2019-03-28T00:51:30.271Z,15.95
2019-03-28T00:54:00.644Z,11.68
2019-03-28T00:56:44.823Z,18.48
2019-03-28T00:59:02.346Z,15.60
2019-03-28T01:01:32.158Z,14.63
2019-03-28T01:04:02.310Z,15.28
2019-03-28T01:06:32.411Z,13.75
2019-03-28T01:09:04.185Z,17.62
2019-03-28T01:11:33.611Z,21.10
2019-03-28T01:14:03.390Z,24.92
2019-03-28T01:16:33.198Z,17.87
2019-03-28T01:19:03.334Z,16.35
2019-03-28T01:21:33.355Z,16.20
2019-03-28T01:24:03.600Z,17.57
2019-03-28T01:26:34.019Z,19.57
2019-03-28T01:29:04.282Z,19.87
2019-03-28T01:31:34.599Z,13.68
2019-03-28T01:34:04.879Z,15.20
2019-03-28T01:36:35.309Z,19.70
2019-03-28T01:39:07.339Z,14.15
2019-03-28T01:41:37.112Z,17.82
2019-03-28T01:44:06.890Z,19.73
2019-03-28T01:46:36.707Z,20.37
2019-03-28T01:49:06.478Z,16.60
2019-03-28T01:51:36.843Z,17.35
2019-03-28T01:54:06.914Z,19.35
2019-03-28T01:56:37.295Z,19.55
2019-03-28T01:59:07.416Z,22.62
2019-03-28T02:01:37.987Z,22.13
2019-03-28T02:04:07.962Z,21.75
2019-03-28T02:06:38.283Z,16.02
2019-03-28T02:09:08.652Z,18.90
2019-03-28T02:11:38.829Z,14.43
2019-03-28T02:14:09.054Z,19.42
2019-03-28T02:16:39.406Z,20.52
2019-03-28T02:19:09.599Z,21.05
2019-03-28T02:21:39.933Z,18.57
2019-03-28T02:24:09.980Z,19.48
2019-03-28T02:26:40.578Z,16.25
2019-03-28T02:29:10.595Z,21.73
2019-03-28T02:31:40.853Z,17.82
2019-03-28T02:34:11.156Z,14.70
2019-03-28T02:36:41.455Z,18.62
2019-03-28T02:39:11.619Z,18.20
2019-03-28T02:41:41.913Z,18.05
2019-03-28T02:44:12.255Z,18.15
2019-03-28T02:46:42.679Z,23.05
2019-03-28T02:49:12.723Z,14.78
2019-03-28T02:51:43.093Z,16.70
2019-03-28T02:54:13.379Z,16.02
2019-03-28T02:56:43.654Z,24.52
2019-03-28T02:59:13.985Z,16.23
2019-03-28T03:01:44.197Z,19.23
2019-03-28T03:04:14.232Z,17.05
2019-03-28T03:06:44.856Z,21.93
2019-03-28T03:09:14.854Z,24.20
2019-03-28T03:11:45.301Z,20.45
2019-03-28T03:14:15.442Z,17.60
2019-03-28T03:16:45.673Z,15.32
2019-03-28T03:19:16.680Z,18.48
2019-03-28T03:21:46.457Z,17.32
2019-03-28T03:24:16.553Z,17.27
2019-03-28T03:26:46.912Z,13.60
2019-03-28T03:29:17.082Z,24.00
2019-03-28T03:31:47.333Z,21.55
2019-03-28T03:34:17.612Z,18.98
2019-03-28T03:36:47.944Z,20.55
2019-03-28T03:39:17.979Z,20.72
2019-03-28T03:41:48.283Z,20.65
2019-03-28T03:44:18.509Z,19.05
2019-03-28T03:46:48.867Z,16.45
2019-03-28T03:49:19.057Z,21.48
2019-03-28T03:51:49.228Z,24.65
2019-03-28T03:54:19.645Z,18.52
2019-03-28T03:56:51.389Z,15.93
2019-03-28T03:59:21.168Z,16.50
2019-03-28T04:01:50.984Z,18.02
2019-03-28T04:04:21.898Z,22.42
2019-03-28T04:06:52.183Z,20.25
2019-03-28T04:09:22.043Z,20.90
2019-03-28T04:11:51.822Z,26.05
2019-03-28T04:14:21.627Z,17.75
2019-03-28T04:16:51.936Z,21.73
2019-03-28T04:19:22.363Z,16.73
2019-03-28T04:21:52.328Z,21.65
2019-03-28T04:24:22.194Z,16.50
2019-03-28T04:26:52.933Z,23.77
2019-03-28T04:29:23.639Z,17.92
2019-03-28T04:31:54.055Z,20.32
2019-03-28T04:34:23.957Z,17.45
2019-03-28T04:36:54.565Z,17.77
2019-03-28T04:39:24.565Z,27.77
2019-03-28T04:41:54.862Z,16.90
2019-03-28T04:44:25.359Z,20.92
2019-03-28T04:46:55.344Z,21.80
2019-03-28T04:49:25.630Z,16.85
2019-03-28T04:51:55.947Z,19.50
2019-03-28T04:54:26.065Z,23.07
2019-03-28T04:56:56.197Z,17.48
2019-03-28T04:59:26.518Z,17.32
2019-03-28T05:02:03.062Z,17.52
2019-03-28T05:04:28.487Z,19.27
2019-03-28T05:06:58.264Z,22.62
2019-03-28T05:09:28.260Z,19.30
2019-03-28T05:11:58.040Z,19.87
2019-03-28T05:14:28.264Z,20.68
2019-03-28T05:16:58.483Z,18.60
2019-03-28T05:19:28.814Z,21.27
2019-03-28T05:21:59.031Z,23.90
2019-03-28T05:24:29.609Z,25.40
2019-03-28T05:26:59.578Z,21.17
2019-03-28T05:29:29.907Z,22.27
2019-03-28T05:32:00.470Z,20.35
2019-03-28T05:34:30.435Z,21.55
2019-03-28T05:37:00.576Z,23.42
2019-03-28T05:39:31.035Z,19.80
2019-03-28T05:42:01.018Z,19.62
2019-03-28T05:44:31.654Z,23.65
2019-03-28T05:47:01.915Z,17.98
2019-03-28T05:49:32.093Z,21.17
2019-03-28T05:52:02.251Z,21.75
2019-03-28T05:54:32.591Z,24.15
2019-03-28T05:57:02.560Z,22.70
2019-03-28T05:59:32.882Z,21.80
2019-03-28T06:02:03.373Z,21.77
2019-03-28T06:04:34.358Z,22.75
2019-03-28T06:07:04.518Z,26.50
2019-03-28T06:09:34.330Z,24.85
2019-03-28T06:12:04.512Z,20.95
2019-03-28T06:14:34.834Z,22.45
2019-03-28T06:17:04.892Z,25.15
2019-03-28T06:19:35.282Z,28.60
2019-03-28T06:22:05.576Z,26.35
2019-03-28T06:24:35.780Z,21.05
2019-03-28T06:27:06.007Z,20.92
2019-03-28T06:29:36.478Z,18.20
2019-03-28T06:32:06.527Z,20.05
2019-03-28T06:34:36.946Z,19.95
2019-03-28T06:37:07.256Z,19.35
2019-03-28T06:39:37.683Z,17.73
2019-03-28T06:42:07.625Z,29.65
2019-03-28T06:44:37.915Z,22.62
2019-03-28T06:47:08.171Z,17.02
2019-03-28T06:49:38.446Z,21.30
2019-03-28T06:52:08.795Z,21.93
2019-03-28T06:54:39.351Z,16.50
2019-03-28T06:57:09.648Z,20.70
2019-03-28T06:59:39.603Z,26.52
2019-03-28T07:02:10.232Z,25.97
2019-03-28T07:04:40.410Z,23.73
2019-03-28T07:07:10.542Z,21.60
2019-03-28T07:09:40.895Z,22.90
2019-03-28T07:12:11.288Z,27.77
2019-03-28T07:14:41.306Z,30.30
2019-03-28T07:17:11.580Z,22.30
2019-03-28T07:19:42.162Z,24.20
2019-03-28T07:22:12.004Z,22.85
2019-03-28T07:24:42.540Z,21.97
2019-03-28T07:27:12.617Z,23.65
2019-03-28T07:29:50.747Z,20.32
2019-03-28T07:32:15.151Z,27.22
2019-03-28T07:34:44.931Z,21.52
2019-03-28T07:37:14.712Z,23.27
2019-03-28T07:39:44.531Z,18.82
2019-03-28T07:42:14.314Z,25.02
2019-03-28T07:44:44.497Z,23.25
2019-03-28T07:47:14.862Z,26.50
2019-03-28T07:49:45.599Z,25.52
2019-03-28T07:52:15.683Z,25.68
2019-03-28T07:54:48.686Z,22.62
2019-03-28T07:57:17.059Z,18.50
2019-03-28T07:59:46.848Z,22.77
2019-03-28T08:02:16.679Z,23.92
2019-03-28T08:04:46.523Z,26.25
2019-03-28T08:07:16.812Z,25.82
2019-03-28T08:09:47.075Z,23.05
2019-03-28T08:12:22.919Z,17.15
2019-03-28T08:14:48.615Z,19.75
2019-03-28T08:17:18.442Z,16.75
2019-03-28T08:19:48.690Z,15.00
2019-03-28T08:22:18.477Z,15.95
2019-03-28T08:24:48.611Z,17.30
2019-03-28T08:27:18.899Z,16.07
2019-03-28T08:32:59.844Z,18.85
2019-03-28T08:35:32.738Z,13.20
2019-03-28T08:38:03.028Z,10.60
2019-03-28T08:40:35.435Z,13.90
2019-03-28T08:43:06.020Z,16.25
2019-03-28T08:45:35.807Z,12.70
2019-03-28T08:48:05.823Z,14.35
2019-03-28T08:50:35.595Z,17.87
2019-03-28T08:53:05.641Z,16.40
2019-03-28T08:55:35.463Z,14.90
2019-03-28T08:58:05.417Z,15.68
2019-03-28T09:00:50.953Z,22.32
2019-03-28T09:03:06.708Z,16.20
2019-03-28T09:05:36.567Z,15.08
2019-03-28T09:08:06.333Z,8.95
2019-03-28T09:10:36.615Z,15.28
2019-03-28T09:13:06.401Z,14.07
2019-03-28T09:15:43.709Z,15.18
2019-03-28T09:18:07.621Z,14.55
2019-03-28T09:20:37.398Z,12.47
2019-03-28T09:23:07.179Z,11.22
2019-03-28T09:25:37.011Z,9.55
2019-03-28T09:28:06.787Z,13.75
2019-03-28T09:30:48.035Z,14.45
2019-03-28T09:33:11.371Z,13.78
2019-03-28T09:35:41.613Z,13.10
2019-03-28T09:38:11.619Z,10.38
2019-03-28T09:40:41.430Z,10.58
2019-03-28T09:43:11.213Z,10.95
2019-03-28T09:45:41.027Z,11.85
2019-03-28T09:48:11.826Z,11.20
2019-03-28T09:50:42.344Z,12.35
2019-03-28T09:53:12.194Z,13.45
2019-03-28T09:55:42.017Z,14.63
2019-03-28T09:58:11.795Z,14.38
2019-03-28T10:00:44.287Z,11.40
2019-03-28T10:03:14.111Z,11.93
2019-03-28T10:05:44.084Z,11.15
2019-03-28T10:08:13.872Z,10.68
2019-03-28T10:10:43.702Z,13.60
2019-03-28T10:13:13.772Z,16.17
2019-03-28T10:15:44.308Z,8.33
2019-03-28T10:18:14.126Z,13.62
2019-03-28T10:20:43.990Z,11.95
2019-03-28T10:23:13.697Z,12.37
2019-03-28T10:25:43.526Z,13.45
2019-03-28T10:28:13.294Z,10.18
2019-03-28T10:30:44.375Z,11.05
2019-03-28T10:33:14.198Z,13.08
2019-03-28T10:35:43.986Z,10.00
2019-03-28T10:38:13.965Z,10.32
2019-03-28T10:40:44.191Z,9.25
2019-03-28T10:43:14.239Z,9.08
2019-03-28T10:45:44.564Z,8.43
2019-03-28T10:48:15.227Z,9.90
2019-03-28T10:50:46.204Z,9.90
2019-03-28T10:53:17.072Z,12.78
2019-03-28T10:55:46.900Z,10.25
2019-03-28T10:58:19.296Z,5.20
2019-03-28T11:00:48.249Z,9.35
2019-03-28T11:03:18.065Z,9.25
2019-03-28T11:05:47.913Z,11.28
2019-03-28T11:08:18.590Z,8.75
2019-03-28T11:10:48.723Z,9.50
2019-03-28T11:13:19.378Z,10.60
2019-03-28T11:15:49.475Z,11.03
2019-03-28T11:18:19.948Z,12.20
2019-03-28T11:20:50.050Z,12.33
2019-03-28T11:23:20.259Z,12.25
2019-03-28T11:25:50.357Z,10.15
2019-03-28T11:28:23.293Z,9.38
2019-03-28T11:30:52.068Z,12.85
2019-03-28T11:33:22.288Z,11.65
2019-03-28T11:35:52.490Z,14.28
2019-03-28T11:38:22.276Z,12.58
2019-03-28T11:40:52.096Z,19.25
2019-03-28T11:43:22.019Z,9.50
2019-03-28T11:45:52.266Z,14.23
2019-03-28T11:48:22.631Z,13.50
2019-03-28T11:50:52.915Z,10.58
2019-03-28T11:53:23.036Z,17.32
2019-03-28T11:55:53.391Z,10.78
2019-03-28T11:58:23.547Z,10.53
2019-03-28T12:00:54.013Z,11.83
2019-03-28T12:03:24.264Z,10.28
2019-03-28T12:05:54.557Z,9.98
2019-03-28T12:08:24.589Z,11.08
2019-03-28T12:10:54.938Z,11.22
2019-03-28T12:13:25.139Z,15.63
2019-03-28T12:15:55.415Z,8.43
2019-03-28T12:18:25.787Z,8.73
2019-03-28T12:20:56.110Z,11.48
2019-03-28T12:23:26.324Z,12.53
2019-03-28T12:25:56.586Z,9.70
2019-03-28T12:28:26.707Z,9.28
2019-03-28T12:30:57.720Z,9.80
2019-03-28T12:33:27.654Z,9.18
2019-03-28T12:35:58.000Z,12.55
2019-03-28T12:38:28.748Z,9.88
2019-03-28T12:40:58.844Z,13.48
2019-03-28T12:43:28.620Z,10.85
2019-03-28T12:45:59.106Z,9.48
2019-03-28T12:48:29.164Z,15.35
2019-03-28T12:50:59.981Z,11.75
2019-03-28T12:53:30.599Z,11.43
2019-03-28T12:56:00.660Z,11.48
2019-03-28T12:58:30.457Z,10.82
2019-03-28T13:01:00.267Z,9.63
2019-03-28T13:03:44.477Z,10.30
2019-03-28T13:06:02.068Z,10.28
2019-03-28T13:08:31.850Z,9.70
2019-03-28T13:11:01.787Z,11.45
2019-03-28T13:13:32.018Z,11.48
2019-03-28T13:16:02.622Z,10.32
2019-03-28T13:18:35.924Z,12.15
2019-03-28T13:21:13.449Z,10.18
2019-03-28T13:23:37.075Z,9.65
2019-03-28T13:26:06.867Z,11.90
2019-03-28T13:28:36.651Z,11.12
2019-03-28T13:31:07.522Z,9.05
2019-03-28T13:33:37.351Z,10.80
2019-03-28T13:36:07.535Z,11.28
2019-03-28T13:38:37.983Z,11.38
2019-03-28T13:41:07.820Z,9.80
2019-03-28T13:43:37.596Z,11.10
2019-03-28T13:46:07.371Z,12.20
2019-03-28T13:48:37.190Z,11.12
2019-03-28T13:51:06.971Z,13.15
2019-03-28T13:53:39.797Z,13.58
2019-03-28T13:56:09.219Z,12.63
2019-03-28T13:58:39.457Z,12.58
2019-03-28T14:01:10.242Z,10.72
2019-03-28T14:03:40.043Z,13.65
2019-03-28T14:06:09.831Z,11.57
2019-03-28T14:08:39.607Z,11.63
2019-03-28T14:11:09.430Z,11.78
2019-03-28T14:13:39.211Z,16.45
2019-03-28T14:16:09.001Z,16.67
2019-03-28T14:18:39.368Z,14.50
2019-03-28T14:21:09.659Z,12.28
2019-03-28T14:23:39.671Z,14.03
2019-03-28T14:26:10.034Z,14.10
2019-03-28T14:28:40.028Z,12.78
2019-03-28T14:31:10.567Z,18.87
2019-03-28T14:33:40.667Z,16.85
2019-03-28T14:36:10.899Z,13.45
2019-03-28T14:38:41.391Z,13.55
2019-03-28T14:41:11.486Z,15.95
2019-03-28T14:43:41.654Z,18.55
2019-03-28T14:46:12.055Z,16.62
2019-03-28T14:48:42.385Z,15.88
2019-03-28T14:51:12.702Z,19.35
2019-03-28T14:53:43.062Z,16.70
2019-03-28T14:56:13.430Z,18.05
2019-03-28T14:58:45.119Z,18.37
2019-03-28T15:01:14.909Z,23.35
2019-03-28T15:03:46.457Z,18.37
2019-03-28T15:06:16.243Z,15.38
2019-03-28T15:08:46.018Z,14.03
2019-03-28T15:11:15.837Z,16.80
2019-03-28T15:13:45.628Z,17.12
2019-03-28T15:16:15.451Z,38.65
2019-03-28T15:18:45.757Z,32.85
2019-03-28T15:21:16.230Z,19.12
2019-03-28T15:23:46.018Z,18.45
2019-03-28T15:26:16.316Z,17.55
2019-03-28T15:28:46.589Z,16.25
2019-03-28T15:31:16.912Z,20.95
2019-03-28T15:33:47.062Z,16.10
2019-03-28T15:36:17.359Z,13.98
2019-03-28T15:38:47.682Z,18.67
2019-03-28T15:41:17.928Z,19.67
2019-03-28T15:43:48.539Z,22.70
2019-03-28T15:46:18.550Z,15.32
2019-03-28T15:48:48.920Z,16.97
2019-03-28T15:51:19.312Z,17.77
2019-03-28T15:53:49.696Z,20.17
2019-03-28T15:56:19.860Z,16.35
2019-03-28T15:58:49.741Z,20.23
2019-03-28T16:01:20.010Z,16.42
2019-03-28T16:03:53.523Z,19.12
2019-03-28T16:06:23.410Z,21.23
2019-03-28T16:08:53.853Z,19.12
2019-03-28T16:11:23.822Z,14.73
2019-03-28T16:13:53.607Z,18.17
2019-03-28T16:16:23.390Z,17.52
2019-03-28T16:18:53.976Z,17.65
2019-03-28T16:21:26.572Z,16.70
2019-03-28T16:23:55.223Z,14.65
2019-03-28T16:26:25.053Z,14.55
2019-03-28T16:28:56.504Z,16.87
2019-03-28T16:31:27.471Z,20.15
2019-03-28T16:34:06.876Z,16.77
2019-03-28T16:36:28.694Z,21.85
2019-03-28T16:38:58.868Z,15.32
2019-03-28T16:41:29.131Z,18.65
2019-03-28T16:43:59.794Z,25.10
2019-03-28T16:46:29.805Z,18.25
2019-03-28T16:48:59.690Z,14.28
2019-03-28T16:51:30.095Z,19.65
2019-03-28T16:54:00.312Z,16.62
2019-03-28T16:56:30.493Z,16.82
2019-03-28T16:59:00.852Z,21.12
2019-03-28T17:01:31.079Z,19.07
2019-03-28T17:04:01.435Z,20.52
2019-03-28T17:06:31.754Z,18.95
2019-03-28T17:09:02.424Z,18.95
2019-03-28T17:11:32.388Z,17.50
2019-03-28T17:14:02.221Z,25.30
2019-03-28T17:16:32.616Z,16.57
2019-03-28T17:19:03.179Z,19.20
2019-03-28T17:21:33.494Z,14.15
2019-03-28T17:24:03.491Z,18.12
2019-03-28T17:26:34.063Z,19.02
2019-03-28T17:29:04.364Z,16.10
2019-03-28T17:31:34.573Z,15.23
2019-03-28T17:34:04.636Z,20.17
2019-03-28T17:36:34.775Z,15.83
2019-03-28T17:39:06.330Z,19.02
2019-03-28T17:41:36.161Z,16.25
2019-03-28T17:44:05.944Z,17.05
2019-03-28T17:46:35.817Z,13.20
2019-03-28T17:49:06.145Z,18.90
2019-03-28T17:51:36.247Z,16.75
2019-03-28T17:54:06.575Z,17.40
2019-03-28T17:56:36.763Z,18.42
2019-03-28T17:59:07.024Z,16.17
2019-03-28T18:01:37.417Z,17.10
2019-03-28T18:04:22.285Z,16.00
2019-03-28T18:06:42.447Z,18.37
2019-03-28T18:09:13.095Z,18.67
2019-03-28T18:11:43.984Z,16.42
2019-03-28T18:14:13.766Z,19.60
2019-03-28T18:16:44.373Z,17.82
2019-03-28T18:19:14.544Z,16.10
2019-03-28T18:21:44.555Z,22.82
2019-03-28T18:24:15.645Z,15.03
2019-03-28T18:26:47.580Z,17.27
2019-03-28T18:29:19.264Z,15.45
2019-03-28T18:31:50.778Z,17.85
2019-03-28T18:34:21.139Z,21.37
2019-03-28T18:36:52.126Z,20.20
2019-03-28T18:39:22.512Z,20.60
2019-03-28T18:41:52.339Z,18.00
2019-03-28T18:44:22.120Z,17.65
2019-03-28T18:46:52.494Z,18.17
2019-03-28T18:49:23.155Z,16.10
2019-03-28T18:51:53.368Z,20.52
2019-03-28T18:54:23.690Z,24.07
2019-03-28T18:56:53.762Z,24.57
2019-03-28T18:59:23.979Z,60.25
2019-03-28T19:01:54.262Z,21.73
2019-03-28T19:04:24.639Z,25.40
2019-03-28T19:06:57.596Z,18.30
2019-03-28T19:09:26.012Z,22.15
2019-03-28T19:11:56.151Z,25.85
2019-03-28T19:14:26.240Z,24.60
2019-03-28T19:16:56.028Z,25.62
2019-03-28T19:19:38.718Z,26.77
2019-03-28T19:21:57.620Z,28.10
2019-03-28T19:24:27.362Z,32.30
2019-03-28T19:26:57.186Z,24.72
2019-03-28T19:29:26.992Z,31.25
2019-03-28T19:31:58.079Z,27.67
2019-03-28T19:34:27.893Z,23.67
2019-03-28T19:36:59.087Z,25.60
2019-03-28T19:39:31.572Z,25.23
2019-03-28T19:42:04.445Z,24.23
2019-03-28T19:44:33.687Z,22.87
2019-03-28T19:47:03.704Z,21.85
2019-03-28T19:49:33.955Z,30.50
2019-03-28T19:52:04.064Z,26.12
2019-03-28T19:54:35.850Z,27.27
2019-03-28T19:57:06.783Z,28.95
2019-03-28T19:59:36.567Z,29.15
2019-03-28T20:02:06.415Z,32.55
2019-03-28T20:04:36.322Z,33.60
2019-03-28T20:07:06.111Z,25.97
2019-03-28T20:09:35.911Z,24.57
2019-03-28T20:12:06.275Z,24.80
2019-03-28T20:14:36.371Z,22.73
2019-03-28T20:17:06.655Z,28.27
2019-03-28T20:19:37.176Z,26.23
2019-03-28T20:22:07.145Z,23.95
2019-03-28T20:24:37.414Z,27.35
2019-03-28T20:27:07.787Z,25.60
2019-03-28T20:29:39.981Z,27.48
2019-03-28T20:32:09.465Z,29.80
2019-03-28T20:34:39.480Z,29.02
2019-03-28T20:37:09.407Z,26.52
2019-03-28T20:39:39.363Z,27.02
2019-03-28T20:42:09.188Z,27.30
2019-03-28T20:44:39.786Z,25.62
2019-03-28T20:47:10.039Z,29.67
2019-03-28T20:49:40.399Z,29.25
2019-03-28T20:52:19.010Z,33.25
2019-03-28T20:55:08.114Z,30.43
2019-03-28T20:57:40.424Z,33.25
2019-03-28T21:00:11.395Z,31.95
2019-03-28T21:02:42.203Z,28.83
2019-03-28T21:05:14.356Z,35.28
2019-03-28T21:07:45.711Z,33.85
2019-03-28T21:10:26.018Z,33.85
2019-03-28T21:12:56.035Z,30.35
2019-03-28T21:15:26.075Z,30.15
2019-03-28T21:17:56.061Z,31.60
2019-03-28T21:20:26.082Z,32.33
2019-03-28T21:22:56.651Z,33.28
2019-03-28T21:25:29.429Z,33.10
2019-03-28T21:27:58.853Z,30.02
2019-03-28T21:30:29.698Z,31.60
2019-03-28T21:33:02.463Z,37.48
2019-03-28T21:35:33.517Z,33.85
2019-03-28T21:38:03.482Z,30.60
2019-03-28T21:40:33.494Z,33.20
2019-03-28T21:43:04.923Z,35.05
2019-03-28T21:45:35.793Z,34.70
2019-03-28T21:48:05.795Z,26.42
2019-03-28T21:50:35.572Z,28.65
2019-03-28T21:53:05.431Z,30.52
2019-03-28T21:55:35.250Z,33.50
2019-03-28T21:58:05.527Z,28.90
2019-03-28T22:00:35.305Z,32.10
2019-03-28T22:03:05.191Z,34.78
2019-03-28T22:05:34.971Z,33.18
2019-03-28T22:08:04.760Z,36.70
2019-03-28T22:10:34.727Z,33.75
2019-03-28T22:13:04.527Z,30.82
2019-03-28T22:15:34.370Z,32.85
2019-03-28T22:18:05.541Z,33.38
2019-03-28T22:20:35.396Z,33.38
2019-03-28T22:23:05.184Z,31.00
2019-03-28T22:25:35.287Z,45.17
2019-03-28T22:28:05.469Z,36.15
2019-03-28T22:30:36.126Z,35.78
2019-03-28T22:33:07.186Z,35.15
2019-03-28T22:35:37.203Z,32.90
2019-03-28T22:38:07.013Z,37.17
2019-03-28T22:40:37.199Z,32.17
2019-03-28T22:43:08.177Z,32.38
2019-03-28T22:45:38.072Z,31.48
2019-03-28T22:48:10.968Z,31.35
2019-03-28T22:50:39.540Z,37.17
2019-03-28T22:53:09.505Z,29.25
2019-03-28T22:55:40.404Z,34.00
2019-03-28T22:58:10.410Z,28.87
2019-03-28T23:00:42.016Z,31.65
2019-03-28T23:03:12.108Z,32.03
2019-03-28T23:05:41.882Z,29.50
2019-03-28T23:08:11.994Z,32.33
2019-03-28T23:10:42.264Z,33.42
2019-03-28T23:13:12.762Z,35.30
2019-03-28T23:15:43.242Z,31.65
2019-03-28T23:18:13.605Z,36.15
2019-03-28T23:20:43.852Z,43.13
2019-03-28T23:23:16.467Z,32.98
2019-03-28T23:25:46.437Z,32.10
2019-03-28T23:28:16.458Z,33.02
2019-03-28T23:30:47.241Z,29.77
2019-03-28T23:33:17.858Z,33.18
2019-03-28T23:35:48.099Z,44.85
2019-03-28T23:38:17.883Z,38.63
2019-03-28T23:40:47.759Z,36.10
2019-03-28T23:43:18.666Z,37.58
2019-03-28T23:45:48.439Z,37.00
2019-03-28T23:48:18.460Z,34.55
2019-03-28T23:50:48.418Z,33.98
2019-03-28T23:53:18.504Z,32.10
2019-03-28T23:55:49.255Z,34.95
2019-03-28T23:58:20.940Z,31.02
